Time;durP1;ratioP1;P1;durP2;ratioP2;P2;SDS_P1;SDS_P2;PMS_P1;PMS_P2;Temp;Humidity;BMP_temperature;BMP_pressure;BME280_temperature;BME280_humidity;BME280_pressure;Samples;Min_cycle;Max_cycle;Signal;HPM_P1;HPM_P2
2023/11/30 00:01:01;;;;;;;;;;;;;;;0.52;80.63;99832.25;4222125;28;20030;-68
2023/11/30 00:03:03;;;;;;;;;;;;;;;0.53;80.76;99825.94;4222314;28;20015;-68
2023/11/30 00:05:07;;;;;;;;;;;;;;;0.54;80.70;99825.81;4222905;28;20019;-69
2023/11/30 00:07:11;;;;;;;;;;;;;;;0.52;80.50;99818.97;4223100;28;19932;-69
2023/11/30 00:09:12;;;;;;;;;;;;;;;0.50;80.44;99823.56;4222973;28;20034;-68
2023/11/30 00:11:14;;;;;;;;;;;;;;;0.51;80.40;99820.75;4222120;27;20022;-68
2023/11/30 00:13:17;;;;;;;;;;;;;;;0.49;80.48;99835.16;4222766;28;20446;-68
2023/11/30 00:15:19;;;;;;;;;;;;;;;0.48;80.11;99836.97;4222805;28;20051;-69
2023/11/30 00:17:21;;;;;;;;;;;;;;;0.46;79.61;99838.09;4222206;28;20020;-68
2023/11/30 00:19:23;;;;;;;;;;;;;;;0.46;79.53;99836.28;4223174;28;20023;-67
2023/11/30 00:21:25;;;;;;;;;;;;;;;0.44;79.27;99848.00;4221542;28;19995;-68
2023/11/30 00:23:28;;;;;;;;;;;;;;;0.41;79.42;99853.56;4221656;28;20608;-68
2023/11/30 00:25:32;;;;;;;;;;;;;;;0.38;79.19;99845.88;4222375;28;20015;-68
2023/11/30 00:27:34;;;;;;;;;;;;;;;0.39;79.43;99848.41;4221893;28;19923;-68
2023/11/30 00:29:38;;;;;;;;;;;;;;;0.39;79.36;99856.38;4221309;28;20015;-69
2023/11/30 00:31:40;;;;;;;;;;;;;;;0.32;79.04;99861.38;4222805;28;20090;-67
2023/11/30 00:33:42;;;;;;;;;;;;;;;0.33;79.02;99857.75;4222432;28;20027;-68
2023/11/30 00:35:44;;;;;;;;;;;;;;;0.30;79.18;99847.41;4221409;28;20030;-68
2023/11/30 00:37:46;;;;;;;;;;;;;;;0.29;79.23;99847.53;4221662;28;20014;-68
2023/11/30 00:39:47;;;;;;;;;;;;;;;0.26;79.35;99845.97;4221234;27;20011;-68
2023/11/30 00:41:49;;;;;;;;;;;;;;;0.25;79.20;99846.97;4222134;28;20035;-69
2023/11/30 00:43:51;;;;;;;;;;;;;;;0.22;78.81;99841.06;4221344;28;20023;-69
2023/11/30 00:45:54;;;;;;;;;;;;;;;0.21;79.02;99844.69;4222445;28;20024;-69
2023/11/30 00:47:56;;;;;;;;;;;;;;;0.18;78.99;99845.78;4222628;28;19935;-69
2023/11/30 00:49:58;;;;;;;;;;;;;;;0.16;78.83;99845.09;4221150;28;20473;-67
2023/11/30 00:52:01;;;;;;;;;;;;;;;0.16;78.94;99851.25;4220718;28;20018;-67
2023/11/30 00:54:02;;;;;;;;;;;;;;;0.14;78.63;99852.34;4218900;28;20010;-68
2023/11/30 00:56:06;;;;;;;;;;;;;;;0.13;78.64;99848.00;4222100;28;20011;-67
2023/11/30 00:58:08;;;;;;;;;;;;;;;0.12;78.72;99851.63;4219682;28;20381;-69
2023/11/30 01:00:10;;;;;;;;;;;;;;;0.10;78.62;99864.22;4237314;27;20015;-69
2023/11/30 01:02:16;;;;;;;;;;;;;;;0.06;78.78;99854.81;4221994;28;20081;-69
2023/11/30 01:04:18;;;;;;;;;;;;;;;0.05;79.19;99856.63;4222500;28;20023;-69
2023/11/30 01:06:21;;;;;;;;;;;;;;;0.00;79.51;99842.91;4220810;28;20034;-69
2023/11/30 01:08:23;;;;;;;;;;;;;;;-0.03;79.60;99856.44;4220206;28;20019;-69
2023/11/30 01:10:25;;;;;;;;;;;;;;;-0.05;79.84;99861.91;4221656;28;20007;-68
2023/11/30 01:12:26;;;;;;;;;;;;;;;-0.07;80.12;99868.28;4221721;28;20023;-68
2023/11/30 01:14:29;;;;;;;;;;;;;;;-0.09;80.30;99864.94;4204819;28;19967;-68
2023/11/30 01:16:30;;;;;;;;;;;;;;;-0.11;80.38;99875.69;4221733;28;20023;-68
2023/11/30 01:18:34;;;;;;;;;;;;;;;-0.12;80.75;99873.16;4221248;28;20388;-68
2023/11/30 01:20:35;;;;;;;;;;;;;;;-0.13;80.63;99867.00;4221555;28;20022;-68
2023/11/30 01:22:39;;;;;;;;;;;;;;;-0.11;80.71;99880.13;4222210;28;19924;-68
2023/11/30 01:24:42;;;;;;;;;;;;;;;-0.13;80.81;99876.78;4204193;28;20356;-66
2023/11/30 01:26:44;;;;;;;;;;;;;;;-0.13;80.53;99874.94;4203138;28;20023;-68
2023/11/30 01:28:46;;;;;;;;;;;;;;;-0.16;80.38;99879.69;4218886;28;20022;-68
2023/11/30 01:30:48;;;;;;;;;;;;;;;-0.18;80.57;99874.50;4220387;28;20026;-68
2023/11/30 01:32:51;;;;;;;;;;;;;;;-0.19;80.44;99878.13;4221343;28;20023;-68
2023/11/30 01:34:57;;;;;;;;;;;;;;;-0.20;80.52;99871.16;4202711;28;20019;-68
2023/11/30 01:36:59;;;;;;;;;;;;;;;-0.21;80.18;99891.50;4220789;28;20413;-69
2023/11/30 01:39:01;;;;;;;;;;;;;;;-0.21;80.13;99890.69;4219856;28;20445;-68
2023/11/30 01:41:03;;;;;;;;;;;;;;;-0.22;80.06;99910.22;4218478;28;20101;-68
2023/11/30 01:43:05;;;;;;;;;;;;;;;-0.21;80.13;99901.31;4204890;28;20027;-68
2023/11/30 01:45:08;;;;;;;;;;;;;;;-0.24;80.01;99904.22;4221701;28;20378;-69
2023/11/30 01:47:10;;;;;;;;;;;;;;;-0.25;80.09;99910.47;4220641;28;20019;-68
2023/11/30 01:49:12;;;;;;;;;;;;;;;-0.27;80.32;99900.00;4221320;28;19968;-68
2023/11/30 01:51:15;;;;;;;;;;;;;;;-0.29;80.15;99899.28;4220934;28;20355;-69
2023/11/30 01:53:17;;;;;;;;;;;;;;;-0.28;80.44;99902.75;4221460;28;20011;-68
2023/11/30 01:55:19;;;;;;;;;;;;;;;-0.29;80.58;99909.91;4221603;28;20066;-68
2023/11/30 01:57:21;;;;;;;;;;;;;;;-0.32;80.38;99902.19;4220504;28;20022;-68
2023/11/30 01:59:24;;;;;;;;;;;;;;;-0.33;80.63;99903.19;4220249;28;20018;-67
2023/11/30 02:01:26;;;;;;;;;;;;;;;-0.33;80.62;99897.88;4218657;28;20433;-68
2023/11/30 02:03:28;;;;;;;;;;;;;;;-0.35;80.48;99901.63;4203205;28;20035;-69
2023/11/30 02:05:29;;;;;;;;;;;;;;;-0.39;80.82;99899.22;4198384;28;20007;-69
2023/11/30 02:07:32;;;;;;;;;;;;;;;-0.38;80.57;99902.69;4219370;28;20397;-68
2023/11/30 02:09:35;;;;;;;;;;;;;;;-0.39;80.80;99901.88;4202044;28;20016;-67
2023/11/30 02:11:37;;;;;;;;;;;;;;;-0.42;81.01;99898.63;4221083;28;20027;-68
2023/11/30 02:13:39;;;;;;;;;;;;;;;-0.42;81.13;99895.97;4219245;28;20011;-68
2023/11/30 02:15:41;;;;;;;;;;;;;;;-0.44;81.02;99904.06;4220435;28;20018;-68
2023/11/30 02:17:44;;;;;;;;;;;;;;;-0.45;81.47;99898.88;4218570;28;20015;-67
2023/11/30 02:19:47;;;;;;;;;;;;;;;-0.48;81.49;99897.31;4219553;28;20016;-68
2023/11/30 02:21:52;;;;;;;;;;;;;;;-0.49;81.46;99894.78;4218027;28;19966;-68
2023/11/30 02:23:54;;;;;;;;;;;;;;;-0.51;81.65;99888.78;4218575;28;20047;-68
2023/11/30 02:25:58;;;;;;;;;;;;;;;-0.55;81.61;99881.06;4235940;27;20010;-68
2023/11/30 02:28:01;;;;;;;;;;;;;;;-0.57;81.69;99901.56;4219650;28;20026;-69
2023/11/30 02:30:04;;;;;;;;;;;;;;;-0.58;81.58;99896.38;4220835;28;19927;-68
2023/11/30 02:32:07;;;;;;;;;;;;;;;-0.59;81.56;99900.00;4220368;28;20030;-68
2023/11/30 02:34:09;;;;;;;;;;;;;;;-0.62;81.53;99897.63;4202783;28;20027;-68
2023/11/30 02:36:12;;;;;;;;;;;;;;;-0.66;81.38;99896.16;4219205;28;20023;-68
2023/11/30 02:38:15;;;;;;;;;;;;;;;-0.68;81.55;99895.47;4218675;27;20034;-68
2023/11/30 02:40:16;;;;;;;;;;;;;;;-0.70;81.75;99895.59;4219130;28;20015;-67
2023/11/30 02:42:19;;;;;;;;;;;;;;;-0.73;81.83;99890.53;4218573;28;20011;-68
2023/11/30 02:44:21;;;;;;;;;;;;;;;-0.76;81.69;99901.38;4217122;28;20014;-68
2023/11/30 02:46:26;;;;;;;;;;;;;;;-0.81;81.72;99904.41;4220247;28;20015;-68
2023/11/30 02:48:28;;;;;;;;;;;;;;;-0.83;81.83;99906.34;4219317;28;20006;-68
2023/11/30 02:50:30;;;;;;;;;;;;;;;-0.85;82.05;99907.44;4196295;28;19925;-68
2023/11/30 02:52:32;;;;;;;;;;;;;;;-0.88;82.14;99908.50;4219766;28;20023;-68
2023/11/30 02:54:36;;;;;;;;;;;;;;;-0.91;82.13;99906.97;4219930;28;20015;-68
2023/11/30 02:56:38;;;;;;;;;;;;;;;-0.95;82.07;99910.81;4218697;28;20048;-66
2023/11/30 02:58:41;;;;;;;;;;;;;;;-0.96;82.07;99913.59;4220251;28;20028;-68
2023/11/30 03:00:43;;;;;;;;;;;;;;;-0.97;82.09;99920.72;4219255;28;20023;-68
2023/11/30 03:02:44;;;;;;;;;;;;;;;-0.99;82.29;99914.72;4220304;28;20030;-69
2023/11/30 03:04:46;;;;;;;;;;;;;;;-1.01;81.93;99913.97;4220049;28;20022;-67
2023/11/30 03:06:49;;;;;;;;;;;;;;;-1.04;82.10;99916.03;4219954;28;20011;-67
2023/11/30 03:08:52;;;;;;;;;;;;;;;-1.07;82.18;99914.44;4219033;28;20019;-68
2023/11/30 03:10:55;;;;;;;;;;;;;;;-1.11;82.13;99910.38;4219385;28;19928;-68
2023/11/30 03:12:58;;;;;;;;;;;;;;;-1.17;82.34;99905.56;4220029;28;20022;-68
2023/11/30 03:14:59;;;;;;;;;;;;;;;-1.20;82.49;99903.16;4220010;28;20011;-68
2023/11/30 03:17:02;;;;;;;;;;;;;;;-1.24;82.38;99899.06;4221945;28;20313;-68
2023/11/30 03:19:04;;;;;;;;;;;;;;;-1.29;82.58;99904.72;4222228;28;20015;-68
2023/11/30 03:21:14;;;;;;;;;;;;;;;-1.31;82.67;99904.00;4221121;28;20408;-68
2023/11/30 03:23:17;;;;;;;;;;;;;;;-1.33;82.81;99909.44;4223422;28;20540;-67
2023/11/30 03:25:19;;;;;;;;;;;;;;;-1.36;82.97;99904.38;4202547;28;20022;-67
2023/11/30 03:27:22;;;;;;;;;;;;;;;-1.37;82.92;99900.03;4222550;28;20018;-67
2023/11/30 03:29:24;;;;;;;;;;;;;;;-1.39;83.09;99898.47;4223039;28;20010;-68
2023/11/30 03:31:26;;;;;;;;;;;;;;;-1.41;83.24;99895.09;4203199;28;20469;-68
2023/11/30 03:33:28;;;;;;;;;;;;;;;-1.45;83.13;99895.34;4223283;28;20015;-68
2023/11/30 03:35:30;;;;;;;;;;;;;;;-1.49;83.19;99885.09;4222228;28;20014;-68
2023/11/30 03:37:33;;;;;;;;;;;;;;;-1.51;83.30;99887.88;4221734;28;20027;-68
2023/11/30 03:39:35;;;;;;;;;;;;;;;-1.52;83.47;99890.63;4223817;27;20011;-66
2023/11/30 03:41:36;;;;;;;;;;;;;;;-1.55;83.42;99889.09;4221354;28;20409;-68
2023/11/30 03:43:40;;;;;;;;;;;;;;;-1.57;83.45;99893.63;4204948;28;20007;-67
2023/11/30 03:45:42;;;;;;;;;;;;;;;-1.60;83.59;99891.22;4223257;28;20125;-67
2023/11/30 03:47:45;;;;;;;;;;;;;;;-1.62;83.83;99893.16;4223237;28;20018;-68
2023/11/30 03:49:47;;;;;;;;;;;;;;;-1.62;83.81;99893.16;4223292;28;20030;-68
2023/11/30 03:51:48;;;;;;;;;;;;;;;-1.65;83.67;99888.09;4220691;28;19958;-69
2023/11/30 03:53:50;;;;;;;;;;;;;;;-1.67;83.82;99895.34;4220633;28;20019;-67
2023/11/30 03:55:54;;;;;;;;;;;;;;;-1.70;83.85;99891.09;4222136;28;20027;-68
2023/11/30 03:57:56;;;;;;;;;;;;;;;-1.72;84.20;99890.41;4223238;28;20019;-68
2023/11/30 03:59:59;;;;;;;;;;;;;;;-1.74;84.13;99891.47;4220917;28;20018;-68
2023/11/30 04:02:01;;;;;;;;;;;;;;;-1.76;83.98;99886.28;4237575;27;20011;-69
2023/11/30 04:04:04;;;;;;;;;;;;;;;-1.78;84.06;99896.16;4222456;28;20023;-68
2023/11/30 04:06:06;;;;;;;;;;;;;;;-1.78;84.10;99890.88;4223370;28;19956;-68
2023/11/30 04:08:08;;;;;;;;;;;;;;;-1.81;84.17;99884.00;4222341;28;20022;-68
2023/11/30 04:10:10;;;;;;;;;;;;;;;-1.83;83.94;99885.94;4221359;28;20019;-68
2023/11/30 04:12:12;;;;;;;;;;;;;;;-1.83;83.96;99885.09;4220533;28;20023;-68
2023/11/30 04:14:14;;;;;;;;;;;;;;;-1.86;84.04;99886.16;4221954;28;20054;-69
2023/11/30 04:16:19;;;;;;;;;;;;;;;-1.88;84.18;99890.75;4202474;28;20355;-68
2023/11/30 04:18:21;;;;;;;;;;;;;;;-1.89;84.32;99886.41;4217647;28;20140;-67
2023/11/30 04:20:26;;;;;;;;;;;;;;;-1.92;84.30;99889.28;4220337;28;20382;-67
2023/11/30 04:22:28;;;;;;;;;;;;;;;-1.91;84.47;99895.41;4221296;28;20015;-68
2023/11/30 04:24:30;;;;;;;;;;;;;;;-1.92;84.52;99894.56;4222175;28;20011;-68
2023/11/30 04:26:32;;;;;;;;;;;;;;;-1.95;84.14;99892.16;4222402;28;20046;-68
2023/11/30 04:28:34;;;;;;;;;;;;;;;-1.95;84.26;99894.81;4220816;28;20006;-68
2023/11/30 04:30:36;;;;;;;;;;;;;;;-1.97;84.19;99894.09;4222994;28;20019;-70
2023/11/30 04:32:39;;;;;;;;;;;;;;;-1.95;84.50;99888.69;4221727;28;19924;-69
2023/11/30 04:34:41;;;;;;;;;;;;;;;-1.98;84.46;99891.56;4221229;28;20023;-68
2023/11/30 04:36:44;;;;;;;;;;;;;;;-2.01;84.34;99897.91;4222539;28;20022;-68
2023/11/30 04:38:44;;;;;;;;;;;;;;;-2.01;84.68;99888.19;4220242;27;20014;-68
2023/11/30 04:40:48;;;;;;;;;;;;;;;-2.02;84.84;99886.50;4223030;28;20446;-68
2023/11/30 04:42:50;;;;;;;;;;;;;;;-2.03;84.70;99890.09;4221616;28;20039;-68
2023/11/30 04:44:52;;;;;;;;;;;;;;;-2.04;84.53;99898.16;4220759;28;20018;-68
2023/11/30 04:46:54;;;;;;;;;;;;;;;-2.08;84.46;99894.91;4221174;28;20018;-66
2023/11/30 04:48:58;;;;;;;;;;;;;;;-2.10;84.49;99894.19;4222171;28;20018;-68
2023/11/30 04:51:00;;;;;;;;;;;;;;;-2.09;84.57;99892.38;4221100;28;20032;-67
2023/11/30 04:53:02;;;;;;;;;;;;;;;-2.12;84.29;99893.44;4220300;28;20398;-67
2023/11/30 04:55:04;;;;;;;;;;;;;;;-2.18;84.02;99886.84;4218578;28;20027;-67
2023/11/30 04:57:07;;;;;;;;;;;;;;;-2.18;84.03;99892.13;4218584;28;20014;-69
2023/11/30 04:59:09;;;;;;;;;;;;;;;-2.19;83.97;99901.00;4219403;28;20430;-69
2023/11/30 05:01:11;;;;;;;;;;;;;;;-2.20;83.89;99896.66;4220721;28;20022;-68
2023/11/30 05:03:13;;;;;;;;;;;;;;;-2.23;83.80;99904.84;4220924;28;20011;-69
2023/11/30 05:05:16;;;;;;;;;;;;;;;-2.25;83.94;99908.56;4220616;28;20653;-69
2023/11/30 05:07:17;;;;;;;;;;;;;;;-2.26;83.69;99907.72;4219424;28;20031;-68
2023/11/30 05:09:19;;;;;;;;;;;;;;;-2.29;83.70;99905.28;4220152;28;19927;-68
2023/11/30 05:11:20;;;;;;;;;;;;;;;-2.31;83.76;99903.75;4219794;28;20026;-68
2023/11/30 05:13:22;;;;;;;;;;;;;;;-2.32;83.71;99904.69;4221324;28;20002;-68
2023/11/30 05:15:24;;;;;;;;;;;;;;;-2.37;83.68;99897.97;4220911;28;20019;-68
2023/11/30 05:17:26;;;;;;;;;;;;;;;-2.39;83.80;99901.66;4219007;28;20014;-69
2023/11/30 05:19:28;;;;;;;;;;;;;;;-2.40;83.83;99913.19;4219340;28;19977;-69
2023/11/30 05:21:31;;;;;;;;;;;;;;;-2.42;83.65;99913.31;4220578;28;20014;-68
2023/11/30 05:23:34;;;;;;;;;;;;;;;-2.46;83.70;99909.22;4219869;28;20022;-68
2023/11/30 05:25:36;;;;;;;;;;;;;;;-2.46;83.72;99911.00;4219808;28;20018;-67
2023/11/30 05:27:38;;;;;;;;;;;;;;;-2.49;83.83;99911.22;4221120;28;20014;-69
2023/11/30 05:29:40;;;;;;;;;;;;;;;-2.54;83.69;99911.56;4216916;28;20417;-68
2023/11/30 05:31:42;;;;;;;;;;;;;;;-2.55;83.84;99916.03;4217644;28;20018;-68
2023/11/30 05:33:44;;;;;;;;;;;;;;;-2.55;83.77;99923.94;4219021;28;20054;-68
2023/11/30 05:35:45;;;;;;;;;;;;;;;-2.54;84.34;99928.28;4219266;28;20361;-67
2023/11/30 05:37:49;;;;;;;;;;;;;;;-2.53;84.23;99926.47;4219723;28;20020;-68
2023/11/30 05:39:51;;;;;;;;;;;;;;;-2.54;84.36;99933.59;4218014;28;20098;-69
2023/11/30 05:41:53;;;;;;;;;;;;;;;-2.53;84.63;99929.97;4220250;28;20018;-68
2023/11/30 05:43:55;;;;;;;;;;;;;;;-2.50;84.66;99936.00;4218747;28;20396;-68
2023/11/30 05:45:57;;;;;;;;;;;;;;;-2.48;84.82;99926.97;4220054;28;20016;-68
2023/11/30 05:47:59;;;;;;;;;;;;;;;-2.51;84.68;99927.19;4219463;28;20110;-69
2023/11/30 05:50:01;;;;;;;;;;;;;;;-2.54;84.32;99935.38;4220507;28;20023;-68
2023/11/30 05:52:04;;;;;;;;;;;;;;;-2.57;84.44;99930.28;4219907;28;19962;-68
2023/11/30 05:54:08;;;;;;;;;;;;;;;-2.58;84.51;99939.22;4219280;28;20027;-68
2023/11/30 05:56:10;;;;;;;;;;;;;;;-2.59;84.30;99942.78;4221019;28;20035;-68
2023/11/30 05:58:11;;;;;;;;;;;;;;;-2.63;84.14;99939.53;4220108;28;20050;-68
2023/11/30 06:00:15;;;;;;;;;;;;;;;-2.63;84.37;99939.53;4219909;28;20442;-66
2023/11/30 06:02:17;;;;;;;;;;;;;;;-2.60;84.45;99946.38;4218141;28;20035;-68
2023/11/30 06:04:19;;;;;;;;;;;;;;;-2.60;84.49;99946.38;4218518;28;20050;-68
2023/11/30 06:06:21;;;;;;;;;;;;;;;-2.58;84.49;99952.44;4219650;28;20019;-69
2023/11/30 06:08:23;;;;;;;;;;;;;;;-2.56;84.50;99946.06;4219923;28;20028;-68
2023/11/30 06:10:27;;;;;;;;;;;;;;;-2.55;84.74;99952.19;4217340;28;20007;-69
2023/11/30 06:12:29;;;;;;;;;;;;;;;-2.57;84.65;99952.31;4219674;28;20015;-68
2023/11/30 06:14:31;;;;;;;;;;;;;;;-2.56;84.70;99945.22;4218317;28;19924;-68
2023/11/30 06:16:33;;;;;;;;;;;;;;;-2.57;84.67;99947.03;4217619;28;20047;-68
2023/11/30 06:18:35;;;;;;;;;;;;;;;-2.56;85.00;99938.13;4218455;28;20394;-68
2023/11/30 06:20:37;;;;;;;;;;;;;;;-2.56;84.88;99947.84;4217649;28;20022;-68
2023/11/30 06:22:39;;;;;;;;;;;;;;;-2.53;85.11;99945.00;4218992;28;19935;-67
2023/11/30 06:24:41;;;;;;;;;;;;;;;-2.53;85.10;99945.81;4219323;28;20019;-68
2023/11/30 06:26:44;;;;;;;;;;;;;;;-2.53;85.61;99951.13;4219723;28;20018;-68
2023/11/30 06:28:46;;;;;;;;;;;;;;;-2.52;85.52;99951.97;4218434;28;20027;-70
2023/11/30 06:30:48;;;;;;;;;;;;;;;-2.51;85.40;99947.53;4218227;28;20007;-69
2023/11/30 06:32:50;;;;;;;;;;;;;;;-2.51;85.51;99950.16;4218838;28;20027;-69
2023/11/30 06:34:53;;;;;;;;;;;;;;;-2.50;85.58;99952.69;4218476;28;19997;-69
2023/11/30 06:36:54;;;;;;;;;;;;;;;-2.51;85.56;99948.34;4219786;28;20022;-69
2023/11/30 06:38:57;;;;;;;;;;;;;;;-2.47;85.57;99946.34;4219140;28;20023;-69
2023/11/30 06:41:00;;;;;;;;;;;;;;;-2.48;85.46;99955.22;4218728;28;20485;-68
2023/11/30 06:43:03;;;;;;;;;;;;;;;-2.48;85.39;99952.59;4218938;28;20355;-69
2023/11/30 06:45:04;;;;;;;;;;;;;;;-2.47;85.45;99960.41;4218458;28;20031;-69
2023/11/30 06:47:07;;;;;;;;;;;;;;;-2.48;85.53;99961.34;4218618;28;20027;-69
2023/11/30 06:49:09;;;;;;;;;;;;;;;-2.47;85.45;99962.22;4218676;28;20437;-69
2023/11/30 06:51:11;;;;;;;;;;;;;;;-2.46;85.45;99963.88;4217734;28;20031;-69
2023/11/30 06:53:13;;;;;;;;;;;;;;;-2.43;85.54;99961.88;4218989;28;20018;-68
2023/11/30 06:55:14;;;;;;;;;;;;;;;-2.41;85.64;99959.97;4219311;28;19935;-69
2023/11/30 06:57:16;;;;;;;;;;;;;;;-2.41;85.52;99962.59;4219212;28;20019;-69
2023/11/30 06:59:20;;;;;;;;;;;;;;;-2.39;85.69;99963.31;4219474;28;20429;-68
2023/11/30 07:01:23;;;;;;;;;;;;;;;-2.38;85.43;99969.47;4220437;28;20027;-68
2023/11/30 07:03:29;;;;;;;;;;;;;;;-2.41;85.29;99959.97;4219677;28;20030;-68
2023/11/30 07:05:31;;;;;;;;;;;;;;;-2.40;85.51;99972.25;4219147;28;20784;-68
2023/11/30 07:07:34;;;;;;;;;;;;;;;-2.39;85.25;99967.78;4218937;28;20027;-68
2023/11/30 07:09:36;;;;;;;;;;;;;;;-2.39;85.14;99970.44;4218097;28;20366;-68
2023/11/30 07:11:38;;;;;;;;;;;;;;;-2.40;85.17;99966.94;4219347;28;20099;-69
2023/11/30 07:13:40;;;;;;;;;;;;;;;-2.39;84.90;99967.78;4219474;28;20023;-67
2023/11/30 07:15:43;;;;;;;;;;;;;;;-2.41;84.99;99964.41;4219654;28;20022;-68
2023/11/30 07:17:45;;;;;;;;;;;;;;;-2.40;85.10;99972.25;4219327;28;20026;-68
2023/11/30 07:19:47;;;;;;;;;;;;;;;-2.39;85.16;99981.00;4219033;28;19948;-68
2023/11/30 07:21:49;;;;;;;;;;;;;;;-2.38;85.06;99974.78;4219210;28;20042;-68
2023/11/30 07:23:51;;;;;;;;;;;;;;;-2.38;85.06;99975.59;4219845;28;20015;-68
2023/11/30 07:25:53;;;;;;;;;;;;;;;-2.38;85.22;99977.41;4219694;28;20014;-69
2023/11/30 07:27:55;;;;;;;;;;;;;;;-2.38;85.08;99970.31;4220448;28;20478;-69
2023/11/30 07:29:58;;;;;;;;;;;;;;;-2.38;85.19;99974.78;4219145;28;20018;-68
2023/11/30 07:32:01;;;;;;;;;;;;;;;-2.38;85.36;99980.91;4219791;28;20022;-68
2023/11/30 07:34:04;;;;;;;;;;;;;;;-2.37;85.14;99982.59;4220040;28;20016;-66
2023/11/30 07:36:07;;;;;;;;;;;;;;;-2.38;85.06;99977.41;4218575;28;20477;-68
2023/11/30 07:38:09;;;;;;;;;;;;;;;-2.37;85.16;99985.22;4218970;28;20350;-68
2023/11/30 07:40:11;;;;;;;;;;;;;;;-2.37;85.17;99982.59;4219841;28;20014;-67
2023/11/30 07:42:16;;;;;;;;;;;;;;;-2.36;85.36;99983.44;4219328;28;20469;-67
2023/11/30 07:44:18;;;;;;;;;;;;;;;-2.34;85.29;99992.09;4218719;28;20480;-68
2023/11/30 07:46:19;;;;;;;;;;;;;;;-2.32;85.54;99994.63;4219806;28;20055;-68
2023/11/30 07:48:22;;;;;;;;;;;;;;;-2.31;85.49;99991.84;4219042;28;20490;-68
2023/11/30 07:50:27;;;;;;;;;;;;;;;-2.31;85.64;100002.44;4219318;28;20018;-68
2023/11/30 07:52:31;;;;;;;;;;;;;;;-2.29;85.55;99997.03;4219067;28;20022;-68
2023/11/30 07:54:33;;;;;;;;;;;;;;;-2.27;85.66;100005.69;4203322;28;20026;-68
2023/11/30 07:56:35;;;;;;;;;;;;;;;-2.24;85.92;100005.47;4219619;28;20030;-68
2023/11/30 07:58:37;;;;;;;;;;;;;;;-2.21;85.93;100007.88;4217896;28;20074;-68
2023/11/30 08:00:39;;;;;;;;;;;;;;;-2.21;85.95;100003.47;4215457;28;20031;-68
2023/11/30 08:02:42;;;;;;;;;;;;;;;-2.17;86.10;100014.66;4218171;28;20034;-68
2023/11/30 08:04:45;;;;;;;;;;;;;;;-2.15;86.08;100014.53;4220716;28;20031;-68
2023/11/30 08:06:47;;;;;;;;;;;;;;;-2.12;86.21;100011.66;4220980;28;20034;-68
2023/11/30 08:08:49;;;;;;;;;;;;;;;-2.11;86.32;100016.84;4221832;28;20011;-68
2023/11/30 08:10:51;;;;;;;;;;;;;;;-2.11;86.25;100014.19;4221840;28;20023;-68
2023/11/30 08:12:53;;;;;;;;;;;;;;;-2.10;85.92;100015.91;4222133;28;20022;-68
2023/11/30 08:14:56;;;;;;;;;;;;;;;-2.10;86.02;100007.97;4222161;28;20412;-68
2023/11/30 08:17:04;;;;;;;;;;;;;;;-2.08;86.02;100013.16;4222093;28;20361;-68
2023/11/30 08:19:06;;;;;;;;;;;;;;;-2.05;86.27;100007.63;4222943;28;20027;-69
2023/11/30 08:21:09;;;;;;;;;;;;;;;-2.05;86.00;100002.34;4222418;28;20014;-68
2023/11/30 08:23:11;;;;;;;;;;;;;;;-2.04;86.18;100004.88;4221541;28;20027;-68
2023/11/30 08:25:16;;;;;;;;;;;;;;;-2.02;86.13;100002.94;4222582;28;20015;-68
2023/11/30 08:27:18;;;;;;;;;;;;;;;-2.02;86.07;100005.59;4222356;28;20022;-69
2023/11/30 08:29:20;;;;;;;;;;;;;;;-2.00;86.35;100008.13;4221653;28;20010;-69
2023/11/30 08:31:22;;;;;;;;;;;;;;;-1.98;86.29;100008.00;4222146;28;20454;-68
2023/11/30 08:33:24;;;;;;;;;;;;;;;-1.93;86.45;100009.31;4222621;28;20018;-69
2023/11/30 08:35:27;;;;;;;;;;;;;;;-1.90;86.86;100006.44;4222193;28;20050;-68
2023/11/30 08:37:30;;;;;;;;;;;;;;;-1.86;87.02;100012.38;4222767;28;20011;-66
2023/11/30 08:39:32;;;;;;;;;;;;;;;-1.86;86.71;100004.44;4221303;28;20018;-68
2023/11/30 08:41:36;;;;;;;;;;;;;;;-1.85;86.49;100006.09;4221882;28;20354;-68
2023/11/30 08:43:38;;;;;;;;;;;;;;;-1.84;86.61;100008.66;4221683;28;20011;-68
2023/11/30 08:45:39;;;;;;;;;;;;;;;-1.82;86.47;100004.09;4221574;28;20023;-68
2023/11/30 08:47:42;;;;;;;;;;;;;;;-1.81;86.29;100005.75;4221664;28;20011;-69
2023/11/30 08:49:44;;;;;;;;;;;;;;;-1.79;86.24;100012.75;4220434;28;20010;-68
2023/11/30 08:51:46;;;;;;;;;;;;;;;-1.80;86.31;100014.56;4221816;28;20643;-68
2023/11/30 08:53:49;;;;;;;;;;;;;;;-1.78;86.53;100003.88;4221589;27;20342;-67
2023/11/30 08:55:51;;;;;;;;;;;;;;;-1.77;86.60;100002.88;4221858;28;20019;-68
2023/11/30 08:57:54;;;;;;;;;;;;;;;-1.76;86.73;100002.78;4220334;28;20486;-68
2023/11/30 08:59:55;;;;;;;;;;;;;;;-1.74;86.73;99997.38;4221523;28;20018;-68
2023/11/30 09:01:58;;;;;;;;;;;;;;;-1.72;86.89;99990.16;4221644;28;20018;-68
2023/11/30 09:04:00;;;;;;;;;;;;;;;-1.71;87.01;99997.13;4221775;28;20031;-68
2023/11/30 09:06:02;;;;;;;;;;;;;;;-1.70;87.14;100001.47;4221705;28;20027;-68
2023/11/30 09:08:04;;;;;;;;;;;;;;;-1.67;87.41;100002.06;4222208;28;20010;-68
2023/11/30 09:10:08;;;;;;;;;;;;;;;-1.65;87.36;100009.91;4222497;28;20014;-69
2023/11/30 09:12:10;;;;;;;;;;;;;;;-1.63;87.64;100005.31;4220980;28;20023;-68
2023/11/30 09:14:12;;;;;;;;;;;;;;;-1.60;87.68;99998.97;4221818;28;20015;-68
2023/11/30 09:16:14;;;;;;;;;;;;;;;-1.59;87.59;99996.19;4221515;28;20031;-69
2023/11/30 09:18:16;;;;;;;;;;;;;;;-1.56;87.50;99993.31;4221127;28;19981;-68
2023/11/30 09:20:19;;;;;;;;;;;;;;;-1.54;87.77;99996.69;4221221;28;20010;-68
2023/11/30 09:22:21;;;;;;;;;;;;;;;-1.52;87.77;99999.22;4221126;28;20006;-68
2023/11/30 09:24:25;;;;;;;;;;;;;;;-1.50;87.74;99990.19;4221593;28;20015;-69
2023/11/30 09:26:28;;;;;;;;;;;;;;;-1.47;87.77;99995.25;4221073;28;20019;-68
2023/11/30 09:28:31;;;;;;;;;;;;;;;-1.43;87.91;99997.69;4221692;28;20062;-69
2023/11/30 09:30:33;;;;;;;;;;;;;;;-1.40;87.82;100000.94;4225419;28;19952;-69
2023/11/30 09:32:36;;;;;;;;;;;;;;;-1.39;87.83;99993.84;4229739;28;19966;-68
2023/11/30 09:34:38;;;;;;;;;;;;;;;-1.36;87.71;99991.78;4223683;28;19981;-68
2023/11/30 09:36:39;;;;;;;;;;;;;;;-1.33;87.82;99991.56;4220969;28;20035;-68
2023/11/30 09:38:41;;;;;;;;;;;;;;;-1.28;87.90;99988.56;4220950;28;19924;-68
2023/11/30 09:40:43;;;;;;;;;;;;;;;-1.24;88.10;99991.78;4221425;28;20019;-67
2023/11/30 09:42:47;;;;;;;;;;;;;;;-1.21;87.90;99988.91;4220422;28;20019;-68
2023/11/30 09:44:49;;;;;;;;;;;;;;;-1.19;88.00;99987.84;4220900;28;20031;-67
2023/11/30 09:46:51;;;;;;;;;;;;;;;-1.15;87.71;99986.63;4221351;28;20030;-67
2023/11/30 09:48:53;;;;;;;;;;;;;;;-1.13;87.62;99983.84;4220714;28;20023;-67
2023/11/30 09:50:55;;;;;;;;;;;;;;;-1.12;87.60;99978.41;4219713;28;20047;-68
2023/11/30 09:52:57;;;;;;;;;;;;;;;-1.11;87.46;99977.47;4221348;28;20026;-69
2023/11/30 09:54:59;;;;;;;;;;;;;;;-1.07;87.61;99974.59;4220604;28;20039;-68
2023/11/30 09:57:01;;;;;;;;;;;;;;;-1.06;87.46;99979.75;4220360;28;20481;-66
2023/11/30 09:59:05;;;;;;;;;;;;;;;-1.04;87.65;99977.81;4220424;28;19924;-68
2023/11/30 10:01:07;;;;;;;;;;;;;;;-1.00;87.74;99979.28;4221092;28;20015;-68
2023/11/30 10:03:09;;;;;;;;;;;;;;;-0.98;87.49;99965.91;4220760;28;20007;-68
2023/11/30 10:05:11;;;;;;;;;;;;;;;-0.95;87.66;99968.31;4220070;28;20019;-68
2023/11/30 10:07:13;;;;;;;;;;;;;;;-0.91;87.52;99959.13;4220021;28;20349;-68
2023/11/30 10:09:16;;;;;;;;;;;;;;;-0.88;87.38;99966.84;4220761;28;20478;-69
2023/11/30 10:11:19;;;;;;;;;;;;;;;-0.83;87.44;99964.69;4219824;28;20023;-68
2023/11/30 10:13:21;;;;;;;;;;;;;;;-0.79;87.50;99966.09;4220279;28;20372;-68
2023/11/30 10:15:25;;;;;;;;;;;;;;;-0.72;87.38;99961.19;4218014;28;20027;-69
2023/11/30 10:17:27;;;;;;;;;;;;;;;-0.68;87.19;99957.28;4220967;28;20027;-68
2023/11/30 10:19:30;;;;;;;;;;;;;;;-0.63;87.25;99951.63;4220002;28;19931;-68
2023/11/30 10:21:31;;;;;;;;;;;;;;;-0.58;86.91;99954.72;4220086;28;20375;-67
2023/11/30 10:23:34;;;;;;;;;;;;;;;-0.53;86.57;99954.34;4220314;28;20012;-68
2023/11/30 10:25:37;;;;;;;;;;;;;;;-0.48;85.96;99941.59;4219834;28;20011;-67
2023/11/30 10:27:39;;;;;;;;;;;;;;;-0.42;85.43;99949.88;4219942;28;20015;-68
2023/11/30 10:29:42;;;;;;;;;;;;;;;-0.37;84.90;99947.69;4219376;28;20014;-68
2023/11/30 10:31:45;;;;;;;;;;;;;;;-0.30;84.14;99940.03;4220960;28;20003;-69
2023/11/30 10:33:47;;;;;;;;;;;;;;;-0.25;83.62;99937.00;4219567;28;20018;-68
2023/11/30 10:35:49;;;;;;;;;;;;;;;-0.17;82.68;99936.38;4220388;28;20019;-68